Time;durP1;ratioP1;P1;durP2;ratioP2;P2;SDS_P1;SDS_P2;PMS_P1;PMS_P2;Temp;Humidity;BMP_temperature;BMP_pressure;BME280_temperature;BME280_humidity;BME280_pressure;Samples;Min_cycle;Max_cycle;Signal;HPM_P1;HPM_P2
2023/05/26 00:00:09;;;;;;;;;;;18.70;98.30;18.90;99955.00;;;;348778;27;89276;-91
2023/05/26 00:00:21;;;;;;;;;;;18.70;98.40;18.80;99953.00;;;;346683;28;82549;-90
2023/05/26 00:00:34;;;;;;;;;;;18.70;98.40;18.90;99954.00;;;;350299;27;90260;-89
2023/05/26 00:00:46;;;;;;;;;;;18.70;98.30;18.90;99949.00;;;;349559;28;82479;-90
2023/05/26 00:00:58;;;;;;;;;;;18.70;98.30;18.90;99951.00;;;;351954;27;90395;-89
2023/05/26 00:01:09;;;;;;;;;;;18.70;98.30;18.80;99949.00;;;;349554;28;82539;-91
2023/05/26 00:01:21;;;;;;;;;;;18.70;98.50;18.80;99952.00;;;;349098;28;90655;-90
2023/05/26 00:01:34;;;;;;;;;;;18.70;98.60;18.80;99949.00;;;;349619;28;82547;-90
2023/05/26 00:01:46;;;;;;;;;;;18.70;98.50;18.80;99955.00;;;;347674;28;92007;-90
2023/05/26 00:01:58;;;;;;;;;;;18.70;98.50;18.70;99950.00;;;;347930;28;82454;-90
2023/05/26 00:02:13;;;;;;;;;;;18.70;98.50;18.80;99950.00;;;;348682;28;91899;-90
2023/05/26 00:02:25;;;;;;;;;;;18.70;98.50;18.90;99954.00;;;;347955;28;82489;-91
2023/05/26 00:02:39;;;;;;;;;;;18.60;98.40;18.90;99951.00;;;;347477;28;90168;-90
2023/05/26 00:02:51;;;;;;;;;;;18.60;98.40;18.70;99954.00;;;;350520;27;82571;-90
2023/05/26 00:03:04;;;;;;;;;;;18.60;98.40;18.80;99954.00;;;;347543;28;89486;-91
2023/05/26 00:03:18;;;;;;;;;;;18.60;98.50;18.80;99946.00;;;;347815;28;82534;-90
2023/05/26 00:03:30;;;;;;;;;;;18.60;98.40;18.80;99954.00;;;;347652;27;89413;-91
2023/05/26 00:03:44;;;;;;;;;;;18.60;98.40;18.90;99951.00;;;;346077;28;83426;-90
2023/05/26 00:03:57;;;;;;;;;;;18.60;98.40;18.80;99951.00;;;;344569;28;90386;-90
2023/05/26 00:04:09;;;;;;;;;;;18.60;98.40;18.70;99954.00;;;;346463;28;83429;-91
2023/05/26 00:04:21;;;;;;;;;;;18.60;98.50;18.60;99956.00;;;;344624;28;92451;-91
2023/05/26 00:04:33;;;;;;;;;;;18.60;98.60;18.60;99952.00;;;;343470;28;83491;-90
2023/05/26 00:04:45;;;;;;;;;;;18.60;98.60;18.60;99951.00;;;;345927;28;90488;-90
2023/05/26 00:04:59;;;;;;;;;;;18.60;98.50;18.60;99954.00;;;;349003;27;83312;-91
2023/05/26 00:05:16;;;;;;;;;;;18.60;98.50;18.60;99956.00;;;;345932;28;90388;-90
2023/05/26 00:05:29;;;;;;;;;;;18.60;98.50;18.60;99948.00;;;;346444;28;83372;-90
2023/05/26 00:05:43;;;;;;;;;;;18.50;98.40;18.60;99951.00;;;;344580;28;90169;-90
2023/05/26 00:05:55;;;;;;;;;;;18.60;98.50;18.70;99952.00;;;;347547;28;84359;-90
2023/05/26 00:06:10;;;;;;;;;;;18.50;98.40;18.60;99956.00;;;;344372;28;91733;-90
2023/05/26 00:06:21;;;;;;;;;;;18.50;98.40;18.60;99956.00;;;;347812;28;82598;-90
2023/05/26 00:06:33;;;;;;;;;;;18.50;98.40;18.60;99953.00;;;;345632;28;92513;-90
2023/05/26 00:06:52;;;;;;;;;;;18.50;98.40;18.70;99960.00;;;;347652;28;83363;-90
2023/05/26 00:07:05;;;;;;;;;;;18.50;98.40;18.70;99955.00;;;;345804;28;90453;-90
2023/05/26 00:07:16;;;;;;;;;;;18.50;98.30;18.70;99954.00;;;;347687;28;83489;-91
2023/05/26 00:07:28;;;;;;;;;;;18.50;98.50;18.60;99958.00;;;;347244;28;91367;-90
2023/05/26 00:07:40;;;;;;;;;;;18.50;98.60;18.60;99963.00;;;;347481;28;82567;-90
2023/05/26 00:07:52;;;;;;;;;;;18.50;98.50;18.60;99959.00;;;;345735;28;90328;-90
2023/05/26 00:08:04;;;;;;;;;;;18.50;98.50;18.60;99958.00;;;;346084;28;82568;-90
2023/05/26 00:08:16;;;;;;;;;;;18.50;98.50;18.60;99957.00;;;;345882;28;90310;-90
2023/05/26 00:08:28;;;;;;;;;;;18.50;98.50;18.60;99957.00;;;;348702;27;83526;-90
2023/05/26 00:08:40;;;;;;;;;;;18.50;98.50;18.70;99954.00;;;;344332;28;92513;-90
2023/05/26 00:08:52;;;;;;;;;;;18.50;98.40;18.80;99957.00;;;;346289;28;83392;-91
2023/05/26 00:09:03;;;;;;;;;;;18.50;98.40;18.80;99951.00;;;;347068;28;91544;-90
2023/05/26 00:09:15;;;;;;;;;;;18.50;98.50;18.60;99958.00;;;;346213;28;83471;-90
2023/05/26 00:09:27;;;;;;;;;;;18.50;98.50;18.50;99960.00;;;;345819;28;90899;-90
2023/05/26 00:09:39;;;;;;;;;;;18.50;98.60;18.50;99949.00;;;;346423;28;82487;-90
2023/05/26 00:09:51;;;;;;;;;;;18.50;98.60;18.60;99959.00;;;;343181;28;91666;-91
2023/05/26 00:10:03;;;;;;;;;;;18.40;98.80;18.50;99956.00;;;;343431;28;83017;-90
2023/05/26 00:10:14;;;;;;;;;;;18.50;98.60;18.50;99949.00;;;;346078;28;90633;-90
2023/05/26 00:10:29;;;;;;;;;;;18.40;98.60;18.40;99951.00;;;;346378;28;83431;-90
2023/05/26 00:10:41;;;;;;;;;;;18.40;98.60;18.50;99948.00;;;;345655;28;91302;-90
2023/05/26 00:10:52;;;;;;;;;;;18.40;98.60;18.50;99949.00;;;;346299;28;83314;-90
2023/05/26 00:11:05;;;;;;;;;;;18.40;98.60;18.60;99948.00;;;;345789;28;91291;-91
2023/05/26 00:11:17;;;;;;;;;;;18.40;98.50;18.70;99954.00;;;;344744;28;82487;-90
2023/05/26 00:11:29;;;;;;;;;;;18.40;98.60;18.60;99947.00;;;;345879;28;90460;-90
2023/05/26 00:11:41;;;;;;;;;;;18.40;98.80;18.60;99947.00;;;;344778;28;83426;-91
2023/05/26 00:11:52;;;;;;;;;;;18.40;98.70;18.60;99951.00;;;;345854;28;88199;-90
2023/05/26 00:12:05;;;;;;;;;;;18.40;98.70;18.60;99950.00;;;;347604;27;82480;-90
2023/05/26 00:12:17;;;;;;;;;;;18.40;98.60;18.50;99946.00;;;;345853;28;91176;-90
2023/05/26 00:12:29;;;;;;;;;;;18.40;98.60;18.50;99951.00;;;;346263;28;83340;-90
2023/05/26 00:12:41;;;;;;;;;;;18.40;98.60;18.60;99954.00;;;;348334;27;91127;-90
2023/05/26 00:12:53;;;;;;;;;;;18.40;98.60;18.60;99952.00;;;;346301;28;82381;-90
2023/05/26 00:13:06;;;;;;;;;;;18.40;98.60;18.60;99958.00;;;;345794;28;91384;-90
2023/05/26 00:13:18;;;;;;;;;;;18.40;98.50;18.60;99959.00;;;;348986;27;83378;-90
2023/05/26 00:13:31;;;;;;;;;;;18.40;98.60;18.60;99968.00;;;;347221;28;91650;-90
2023/05/26 00:13:43;;;;;;;;;;;18.40;98.50;18.60;99958.00;;;;346232;28;82259;-90
2023/05/26 00:13:55;;;;;;;;;;;18.40;98.50;18.60;99956.00;;;;348561;27;89975;-90
2023/05/26 00:14:08;;;;;;;;;;;18.40;98.50;18.60;99950.00;;;;348970;27;82481;-90
2023/05/26 00:14:20;;;;;;;;;;;18.40;98.50;18.60;99950.00;;;;345833;28;91682;-91
2023/05/26 00:14:32;;;;;;;;;;;18.40;98.50;18.70;99951.00;;;;346215;28;83263;-90
2023/05/26 00:14:46;;;;;;;;;;;18.40;98.50;18.70;99953.00;;;;345869;28;91225;-90
2023/05/26 00:14:58;;;;;;;;;;;18.40;98.60;18.70;99947.00;;;;346393;28;83214;-90
2023/05/26 00:15:10;;;;;;;;;;;18.40;98.50;18.70;99949.00;;;;342983;28;91948;-90
2023/05/26 00:15:22;;;;;;;;;;;18.40;98.50;18.80;99955.00;;;;346231;28;83454;-90
2023/05/26 00:15:33;;;;;;;;;;;18.40;98.50;18.80;99942.00;;;;345836;28;91617;-90
2023/05/26 00:15:45;;;;;;;;;;;18.40;98.60;18.80;99949.00;;;;346233;28;82488;-90
2023/05/26 00:15:58;;;;;;;;;;;18.40;98.70;18.90;99945.00;;;;345911;28;90105;-90
2023/05/26 00:16:09;;;;;;;;;;;18.40;98.60;18.80;99953.00;;;;346250;28;82519;-90
2023/05/26 00:16:21;;;;;;;;;;;18.40;98.60;18.70;99944.00;;;;345604;28;90597;-90
2023/05/26 00:16:33;;;;;;;;;;;18.40;98.60;18.70;99941.00;;;;346161;28;83489;-90
2023/05/26 00:16:45;;;;;;;;;;;18.40;98.50;18.70;99950.00;;;;345485;28;91416;-90
2023/05/26 00:16:57;;;;;;;;;;;18.40;98.50;18.60;99953.00;;;;348539;27;83493;-90
2023/05/26 00:17:09;;;;;;;;;;;18.40;98.60;18.60;99951.00;;;;346988;28;90448;-89
2023/05/26 00:17:21;;;;;;;;;;;18.40;98.60;18.60;99946.00;;;;344607;28;83474;-90
2023/05/26 00:17:33;;;;;;;;;;;18.40;98.60;18.70;99947.00;;;;346909;28;91342;-90
2023/05/26 00:17:47;;;;;;;;;;;18.40;98.60;18.70;99947.00;;;;346169;28;82580;-90
2023/05/26 00:18:01;;;;;;;;;;;18.40;98.50;18.70;99945.00;;;;344262;28;91108;-90
2023/05/26 00:18:13;;;;;;;;;;;18.40;98.50;18.70;99946.00;;;;347764;28;83324;-90
2023/05/26 00:18:26;;;;;;;;;;;18.40;98.50;18.60;99938.00;;;;345865;28;91597;-90
2023/05/26 00:18:38;;;;;;;;;;;18.40;98.60;18.60;99949.00;;;;346159;28;82419;-90
2023/05/26 00:18:50;;;;;;;;;;;18.40;98.60;18.60;99949.00;;;;345839;28;91415;-90
2023/05/26 00:19:05;;;;;;;;;;;18.40;98.70;18.50;99945.00;;;;344868;28;82631;-90
2023/05/26 00:19:19;;;;;;;;;;;18.40;98.70;18.60;99945.00;;;;345768;28;90057;-91
2023/05/26 00:19:31;;;;;;;;;;;18.40;98.70;18.70;99945.00;;;;346322;28;82471;-91
2023/05/26 00:19:43;;;;;;;;;;;18.40;98.60;18.60;99938.00;;;;345743;28;91744;-91
2023/05/26 00:19:59;;;;;;;;;;;18.40;98.70;18.60;99950.00;;;;347507;28;83435;-90
2023/05/26 00:20:12;;;;;;;;;;;18.40;98.70;18.80;99940.00;;;;345801;28;90897;-90
2023/05/26 00:20:27;;;;;;;;;;;18.40;98.60;18.80;99936.00;;;;347733;28;83194;-90
2023/05/26 00:20:39;;;;;;;;;;;18.40;98.70;18.70;99951.00;;;;345718;28;91061;-90
2023/05/26 00:20:54;;;;;;;;;;;18.40;98.70;18.70;99944.00;;;;344575;28;83519;-90
2023/05/26 00:21:06;;;;;;;;;;;18.40;98.70;18.70;99938.00;;;;345794;28;92525;-91
2023/05/26 00:21:18;;;;;;;;;;;18.40;98.60;18.70;99941.00;;;;346100;28;83396;-90
2023/05/26 00:21:30;;;;;;;;;;;18.40;98.60;18.80;99938.00;;;;345609;28;91649;-90
2023/05/26 00:21:42;;;;;;;;;;;18.40;98.60;18.70;99948.00;;;;347551;28;83801;-90
2023/05/26 00:21:54;;;;;;;;;;;18.40;98.70;18.70;99933.00;;;;345787;28;91121;-91
2023/05/26 00:22:06;;;;;;;;;;;18.40;98.70;18.70;99941.00;;;;347549;28;83422;-91
2023/05/26 00:22:19;;;;;;;;;;;18.40;98.60;18.80;99936.00;;;;344362;28;90329;-91
2023/05/26 00:22:31;;;;;;;;;;;18.40;98.60;18.80;99935.00;;;;346165;28;83361;-90
2023/05/26 00:22:44;;;;;;;;;;;18.40;98.60;18.70;99941.00;;;;344361;28;89292;-90
2023/05/26 00:22:55;;;;;;;;;;;18.40;98.70;18.80;99937.00;;;;347560;28;83455;-90
2023/05/26 00:23:07;;;;;;;;;;;18.40;98.60;18.70;99934.00;;;;347085;28;92955;-90
2023/05/26 00:23:20;;;;;;;;;;;18.40;98.60;18.70;99935.00;;;;344825;28;83481;-90
2023/05/26 00:23:31;;;;;;;;;;;18.40;98.60;18.60;99939.00;;;;347259;28;91521;-90
2023/05/26 00:23:44;;;;;;;;;;;18.50;98.60;18.60;99939.00;;;;348679;27;82599;-90
2023/05/26 00:23:55;;;;;;;;;;;18.50;98.60;18.60;99942.00;;;;344343;28;91780;-90
2023/05/26 00:24:10;;;;;;;;;;;18.50;98.70;18.50;99934.00;;;;344696;28;83464;-90
2023/05/26 00:24:21;;;;;;;;;;;18.40;98.80;18.40;99946.00;;;;345871;28;91125;-90
2023/05/26 00:24:33;;;;;;;;;;;18.40;98.70;18.50;99939.00;;;;344906;28;82455;-90
2023/05/26 00:24:45;;;;;;;;;;;18.40;98.70;18.50;99936.00;;;;345638;28;90188;-90
2023/05/26 00:24:57;;;;;;;;;;;18.40;98.70;18.40;99935.00;;;;344911;28;83428;-90
2023/05/26 00:25:10;;;;;;;;;;;18.40;98.70;18.40;99938.00;;;;344339;28;92006;-90
2023/05/26 00:25:22;;;;;;;;;;;18.40;98.80;18.60;99938.00;;;;344811;28;83317;-90
2023/05/26 00:25:34;;;;;;;;;;;18.40;98.70;18.50;99935.00;;;;345922;28;90301;-90
2023/05/26 00:25:48;;;;;;;;;;;18.40;98.80;18.50;99934.00;;;;347504;28;83415;-90
2023/05/26 00:26:00;;;;;;;;;;;18.40;98.80;18.50;99920.00;;;;345667;28;91444;-90
2023/05/26 00:26:12;;;;;;;;;;;18.40;98.80;18.50;99936.00;;;;344829;28;82302;-90
2023/05/26 00:26:25;;;;;;;;;;;18.40;98.90;18.40;99937.00;;;;344513;28;91315;-90
2023/05/26 00:26:37;;;;;;;;;;;18.40;98.90;18.30;99935.00;;;;344756;28;83301;-90
2023/05/26 00:26:49;;;;;;;;;;;18.30;98.90;18.50;99939.00;;;;344440;28;88316;-90
2023/05/26 00:27:02;;;;;;;;;;;18.30;98.80;18.50;99935.00;;;;344537;28;83626;-90
2023/05/26 00:27:14;;;;;;;;;;;18.30;98.70;18.50;99934.00;;;;345781;28;91472;-90
2023/05/26 00:27:26;;;;;;;;;;;18.30;98.70;18.50;99938.00;;;;347580;28;82501;-90
2023/05/26 00:27:38;;;;;;;;;;;18.30;98.70;18.50;99925.00;;;;345813;28;90526;-90
2023/05/26 00:27:50;;;;;;;;;;;18.30;98.80;18.60;99933.00;;;;344949;28;82496;-90
2023/05/26 00:28:02;;;;;;;;;;;18.30;98.80;18.60;99939.00;;;;347149;28;91273;-90
2023/05/26 00:28:14;;;;;;;;;;;18.30;98.80;18.70;99935.00;;;;348914;27;83323;-90
2023/05/26 00:28:26;;;;;;;;;;;18.30;98.80;18.60;99936.00;;;;344416;28;90484;-90
2023/05/26 00:28:38;;;;;;;;;;;18.30;98.80;18.70;99949.00;;;;344792;28;82577;-90
2023/05/26 00:28:52;;;;;;;;;;;18.40;98.80;18.70;99935.00;;;;346920;28;90556;-90
2023/05/26 00:29:04;;;;;;;;;;;18.40;98.80;18.80;99932.00;;;;344861;28;82460;-90
2023/05/26 00:29:25;;;;;;;;;;;18.40;98.80;18.80;99936.00;;;;347129;27;92554;-90
2023/05/26 00:29:41;;;;;;;;;;;18.40;98.70;18.80;99936.00;;;;346277;28;83320;-90
2023/05/26 00:29:52;;;;;;;;;;;18.40;98.70;18.80;99937.00;;;;347031;28;91510;-90
2023/05/26 00:30:05;;;;;;;;;;;18.40;98.60;18.70;99936.00;;;;346200;28;82595;-90
2023/05/26 00:30:17;;;;;;;;;;;18.40;98.60;18.60;99939.00;;;;345783;28;90522;-90
2023/05/26 00:30:32;;;;;;;;;;;18.40;98.70;18.60;99937.00;;;;346128;28;83404;-90
2023/05/26 00:30:44;;;;;;;;;;;18.40;98.70;18.70;99940.00;;;;345885;28;91532;-90
2023/05/26 00:30:55;;;;;;;;;;;18.40;98.60;18.70;99935.00;;;;346211;28;83392;-90
2023/05/26 00:31:07;;;;;;;;;;;18.40;98.60;18.60;99930.00;;;;346926;28;89488;-90
2023/05/26 00:31:19;;;;;;;;;;;18.40;98.70;18.70;99939.00;;;;347440;28;83503;-90
2023/05/26 00:31:33;;;;;;;;;;;18.40;98.60;18.50;99930.00;;;;347217;28;91434;-90
2023/05/26 00:31:48;;;;;;;;;;;18.40;98.70;18.50;99940.00;;;;346223;28;83352;-90
2023/05/26 00:32:00;;;;;;;;;;;18.40;98.70;18.40;99942.00;;;;347116;27;90405;-90
2023/05/26 00:32:11;;;;;;;;;;;18.40;98.80;18.30;99938.00;;;;348724;27;83414;-90
2023/05/26 00:32:25;;;;;;;;;;;18.40;98.80;18.30;99940.00;;;;347178;28;88857;-91
2023/05/26 00:32:36;;;;;;;;;;;18.30;98.80;18.30;99932.00;;;;346392;28;82450;-90
2023/05/26 00:32:49;;;;;;;;;;;18.30;98.90;18.30;99935.00;;;;347085;28;92021;-90
2023/05/26 00:33:02;;;;;;;;;;;18.30;98.90;18.50;99929.00;;;;347330;28;82477;-90
2023/05/26 00:33:14;;;;;;;;;;;18.30;98.90;18.50;99935.00;;;;345912;28;86440;-90
2023/05/26 00:33:26;;;;;;;;;;;18.30;98.90;18.50;99936.00;;;;347620;28;82510;-90
2023/05/26 00:33:37;;;;;;;;;;;18.30;98.90;18.50;99932.00;;;;345653;28;92720;-90
2023/05/26 00:33:51;;;;;;;;;;;18.30;98.90;18.50;99931.00;;;;347592;28;83444;-90
2023/05/26 00:34:02;;;;;;;;;;;18.30;98.90;18.40;99937.00;;;;344250;28;91782;-90
2023/05/26 00:34:14;;;;;;;;;;;18.30;98.90;18.40;99940.00;;;;346272;28;83383;-90
2023/05/26 00:34:26;;;;;;;;;;;18.30;98.90;18.40;99939.00;;;;344376;28;91438;-90
2023/05/26 00:34:38;;;;;;;;;;;18.30;98.90;18.50;99932.00;;;;347451;28;83323;-90
2023/05/26 00:34:50;;;;;;;;;;;18.30;98.80;18.50;99928.00;;;;343113;28;90544;-90
2023/05/26 00:35:02;;;;;;;;;;;18.30;98.80;18.60;99925.00;;;;347719;28;82345;-90
2023/05/26 00:35:14;;;;;;;;;;;18.30;98.80;18.50;99930.00;;;;345709;28;90919;-91
2023/05/26 00:35:26;;;;;;;;;;;18.30;98.90;18.60;99940.00;;;;346275;28;82514;-90
2023/05/26 00:35:40;;;;;;;;;;;18.30;98.80;18.60;99932.00;;;;346819;28;92283;-91
2023/05/26 00:35:52;;;;;;;;;;;18.30;98.80;18.50;99931.00;;;;344851;28;82499;-91
2023/05/26 00:36:03;;;;;;;;;;;18.30;98.90;18.40;99931.00;;;;345548;28;90248;-90
2023/05/26 00:36:15;;;;;;;;;;;18.30;98.90;18.40;99936.00;;;;344620;28;83541;-90
2023/05/26 00:36:27;;;;;;;;;;;18.30;98.90;18.40;99935.00;;;;347113;28;91851;-90
2023/05/26 00:36:39;;;;;;;;;;;18.20;98.80;18.40;99934.00;;;;346010;28;83466;-90
2023/05/26 00:36:51;;;;;;;;;;;18.30;98.90;18.30;99926.00;;;;345880;28;90823;-90
2023/05/26 00:37:03;;;;;;;;;;;18.30;99.00;18.30;99931.00;;;;345944;28;83474;-90
2023/05/26 00:37:15;;;;;;;;;;;18.20;99.00;18.40;99933.00;;;;345624;28;91891;-90
2023/05/26 00:37:27;;;;;;;;;;;18.30;98.90;18.50;99925.00;;;;346167;28;83325;-91
2023/05/26 00:37:40;;;;;;;;;;;18.20;98.90;18.30;99928.00;;;;344252;28;92539;-90
2023/05/26 00:37:51;;;;;;;;;;;18.30;99.00;18.20;99930.00;;;;346102;28;83341;-90
2023/05/26 00:38:04;;;;;;;;;;;18.20;99.10;18.20;99934.00;;;;345696;28;87980;-90
2023/05/26 00:38:16;;;;;;;;;;;18.20;99.10;18.10;99933.00;;;;347749;28;83321;-90
2023/05/26 00:38:28;;;;;;;;;;;18.20;99.10;18.10;99932.00;;;;345762;28;87675;-91
2023/05/26 00:38:40;;;;;;;;;;;18.20;99.10;18.20;99939.00;;;;346164;28;83455;-90
2023/05/26 00:38:51;;;;;;;;;;;18.20;99.10;18.30;99932.00;;;;345714;28;91089;-90
2023/05/26 00:39:03;;;;;;;;;;;18.20;99.10;18.30;99932.00;;;;346209;28;83531;-90
2023/05/26 00:39:15;;;;;;;;;;;18.20;99.10;18.40;99933.00;;;;347099;27;91856;-90
2023/05/26 00:39:27;;;;;;;;;;;18.20;99.00;18.30;99929.00;;;;344814;28;83507;-91
2023/05/26 00:39:39;;;;;;;;;;;18.20;99.10;18.20;99929.00;;;;347026;28;91667;-90
2023/05/26 00:39:51;;;;;;;;;;;18.10;99.20;18.10;99922.00;;;;346201;28;83328;-90
2023/05/26 00:40:04;;;;;;;;;;;18.10;99.20;18.20;99938.00;;;;344226;28;90470;-90
2023/05/26 00:40:16;;;;;;;;;;;18.10;99.20;18.30;99928.00;;;;346284;28;83368;-90
2023/05/26 00:40:27;;;;;;;;;;;18.10;99.10;18.30;99933.00;;;;344371;28;90490;-90
2023/05/26 00:40:39;;;;;;;;;;;18.10;99.10;18.30;99929.00;;;;346099;28;84040;-89
2023/05/26 00:40:51;;;;;;;;;;;18.10;99.30;18.30;99928.00;;;;343128;28;90049;-91
2023/05/26 00:41:03;;;;;;;;;;;18.10;99.20;18.20;99930.00;;;;347441;28;83445;-90
2023/05/26 00:41:15;;;;;;;;;;;18.10;99.20;18.20;99927.00;;;;345667;28;87916;-90
2023/05/26 00:41:27;;;;;;;;;;;18.10;99.30;18.20;99935.00;;;;346095;28;83595;-90
2023/05/26 00:41:39;;;;;;;;;;;18.10;99.20;18.10;99927.00;;;;345605;28;92448;-91
2023/05/26 00:41:51;;;;;;;;;;;18.10;99.40;18.10;99925.00;;;;345955;28;83476;-91
2023/05/26 00:42:03;;;;;;;;;;;18.10;99.30;18.20;99932.00;;;;345651;28;91355;-91
2023/05/26 00:42:15;;;;;;;;;;;18.10;99.20;18.30;99937.00;;;;344775;28;83440;-91
2023/05/26 00:42:26;;;;;;;;;;;18.10;99.20;18.40;99938.00;;;;345675;28;89542;-91
2023/05/26 00:42:38;;;;;;;;;;;18.10;99.20;18.40;99931.00;;;;345997;28;83487;-90
2023/05/26 00:42:52;;;;;;;;;;;18.10;99.20;18.40;99934.00;;;;344135;28;90897;-91
2023/05/26 00:43:04;;;;;;;;;;;18.10;99.10;18.30;99926.00;;;;346097;28;83432;-91
2023/05/26 00:43:16;;;;;;;;;;;18.10;99.10;18.30;99932.00;;;;347060;28;89172;-91
2023/05/26 00:43:28;;;;;;;;;;;18.10;99.20;18.30;99931.00;;;;346162;28;83423;-90
2023/05/26 00:43:39;;;;;;;;;;;18.10;99.20;18.20;99933.00;;;;345546;28;93421;-91
2023/05/26 00:43:51;;;;;;;;;;;18.10;99.30;18.20;99925.00;;;;348924;27;82419;-90
2023/05/26 00:44:03;;;;;;;;;;;18.10;99.40;18.20;99927.00;;;;346984;27;91789;-91
2023/05/26 00:44:15;;;;;;;;;;;18.10;99.40;18.20;99922.00;;;;343412;28;82507;-90
2023/05/26 00:44:27;;;;;;;;;;;18.00;99.30;18.20;99929.00;;;;342961;28;91135;-91
2023/05/26 00:44:39;;;;;;;;;;;18.00;99.30;18.20;99926.00;;;;346087;28;83474;-90
2023/05/26 00:44:51;;;;;;;;;;;18.00;99.20;18.20;99929.00;;;;347175;28;91697;-90
2023/05/26 00:45:03;;;;;;;;;;;18.00;99.20;18.30;99922.00;;;;348922;27;82612;-90
2023/05/26 00:45:15;;;;;;;;;;;18.00;99.10;18.40;99924.00;;;;345652;28;91637;-90
2023/05/26 00:45:26;;;;;;;;;;;18.00;99.20;18.30;99929.00;;;;347486;28;83472;-91
2023/05/26 00:45:38;;;;;;;;;;;18.00;99.20;18.30;99924.00;;;;347031;28;92461;-90
2023/05/26 00:45:50;;;;;;;;;;;18.10;99.20;18.30;99926.00;;;;344844;28;82570;-91
2023/05/26 00:46:02;;;;;;;;;;;18.00;99.10;18.30;99926.00;;;;345637;28;90910;-91
2023/05/26 00:46:15;;;;;;;;;;;18.10;99.10;18.30;99927.00;;;;347574;28;83343;-90
2023/05/26 00:46:29;;;;;;;;;;;18.00;99.10;18.30;99923.00;;;;345698;28;91385;-91
2023/05/26 00:46:41;;;;;;;;;;;18.00;99.20;18.20;99931.00;;;;343424;28;82451;-91
2023/05/26 00:46:52;;;;;;;;;;;18.00;99.30;18.20;99924.00;;;;345773;28;91644;-91
2023/05/26 00:47:05;;;;;;;;;;;18.00;99.30;18.30;99932.00;;;;345986;28;83486;-90
2023/05/26 00:47:20;;;;;;;;;;;18.00;99.20;18.20;99935.00;;;;342809;28;91355;-91
2023/05/26 00:47:32;;;;;;;;;;;18.00;99.20;18.30;99931.00;;;;347528;28;83383;-90
2023/05/26 00:47:44;;;;;;;;;;;18.00;99.30;18.30;99934.00;;;;345626;28;92472;-90
2023/05/26 00:47:56;;;;;;;;;;;18.00;99.30;18.30;99937.00;;;;347539;28;83409;-91
2023/05/26 00:48:07;;;;;;;;;;;18.00;99.20;18.30;99930.00;;;;347028;27;91445;-90
2023/05/26 00:48:20;;;;;;;;;;;18.00;99.20;18.30;99937.00;;;;344892;28;83486;-91
2023/05/26 00:48:32;;;;;;;;;;;18.00;99.20;18.20;99938.00;;;;345666;28;90379;-91
2023/05/26 00:48:44;;;;;;;;;;;18.00;99.20;18.20;99935.00;;;;346119;28;84306;-90
2023/05/26 00:48:56;;;;;;;;;;;18.00;99.30;18.10;99930.00;;;;345707;28;90425;-90
2023/05/26 00:49:08;;;;;;;;;;;18.00;99.30;18.10;99934.00;;;;347507;28;83409;-91
2023/05/26 00:49:20;;;;;;;;;;;18.00;99.30;18.00;99923.00;;;;347058;27;89753;-91
2023/05/26 00:49:32;;;;;;;;;;;18.00;99.50;18.10;99927.00;;;;344749;28;82476;-90
2023/05/26 00:49:44;;;;;;;;;;;18.00;99.50;18.10;99936.00;;;;346786;28;92467;-91
2023/05/26 00:49:56;;;;;;;;;;;18.00;99.40;18.10;99921.00;;;;346199;28;83413;-91
2023/05/26 00:50:12;;;;;;;;;;;18.00;99.40;18.10;99925.00;;;;347095;28;90372;-91
2023/05/26 00:50:24;;;;;;;;;;;17.90;99.40;18.20;99935.00;;;;346116;28;83444;-90
2023/05/26 00:50:36;;;;;;;;;;;18.00;99.30;18.20;99927.00;;;;345659;28;90504;-90
2023/05/26 00:50:48;;;;;;;;;;;18.00;99.30;18.20;99929.00;;;;344814;28;83497;-91
2023/05/26 00:51:00;;;;;;;;;;;17.90;99.40;18.20;99928.00;;;;347130;28;91202;-90
2023/05/26 00:51:12;;;;;;;;;;;17.90;99.30;18.20;99930.00;;;;344775;28;82475;-91
2023/05/26 00:51:24;;;;;;;;;;;18.00;99.30;18.20;99929.00;;;;344271;28;90512;-90
2023/05/26 00:51:36;;;;;;;;;;;18.00;99.20;18.30;99926.00;;;;346217;28;83406;-92
2023/05/26 00:51:48;;;;;;;;;;;17.90;99.30;18.30;99927.00;;;;344353;28;92086;-90
2023/05/26 00:52:00;;;;;;;;;;;18.00;99.30;18.30;99927.00;;;;346054;28;83506;-90
2023/05/26 00:52:12;;;;;;;;;;;18.00;99.30;18.30;99922.00;;;;345649;28;91329;-90
2023/05/26 00:52:23;;;;;;;;;;;18.00;99.30;18.20;99930.00;;;;344840;28;83450;-90
2023/05/26 00:52:35;;;;;;;;;;;18.00;99.40;18.20;99932.00;;;;347078;28;90253;-91
2023/05/26 00:52:47;;;;;;;;;;;18.00;99.40;18.20;99925.00;;;;347556;27;82504;-91
2023/05/26 00:53:00;;;;;;;;;;;18.00;99.50;18.20;99924.00;;;;345746;28;91099;-90
2023/05/26 00:53:12;;;;;;;;;;;18.00;99.50;18.20;99930.00;;;;343356;28;82463;-91
2023/05/26 00:53:24;;;;;;;;;;;18.00;99.60;18.20;99930.00;;;;345669;28;91990;-91
2023/05/26 00:53:36;;;;;;;;;;;18.00;99.50;18.30;99931.00;;;;346171;28;82364;-90
2023/05/26 00:53:48;;;;;;;;;;;18.00;99.40;18.30;99928.00;;;;345727;28;91055;-91
2023/05/26 00:54:00;;;;;;;;;;;18.00;99.40;18.40;99920.00;;;;346095;28;83437;-91
2023/05/26 00:54:13;;;;;;;;;;;18.00;99.40;18.30;99927.00;;;;345668;28;91771;-90
2023/05/26 00:54:25;;;;;;;;;;;18.00;99.40;18.30;99926.00;;;;346168;28;83312;-91
2023/05/26 00:54:38;;;;;;;;;;;18.00;99.40;18.30;99929.00;;;;344154;28;91346;-91
2023/05/26 00:54:53;;;;;;;;;;;18.00;99.40;18.20;99935.00;;;;344773;28;82501;-90
2023/05/26 00:55:06;;;;;;;;;;;18.00;99.40;18.20;99927.00;;;;345758;28;91402;-90
2023/05/26 00:55:18;;;;;;;;;;;18.00;99.40;18.20;99931.00;;;;344733;28;83469;-90
2023/05/26 00:55:30;;;;;;;;;;;18.00;99.50;18.10;99923.00;;;;344325;28;90473;-91
2023/05/26 00:55:46;;;;;;;;;;;18.00;99.50;18.00;99929.00;;;;344703;28;82511;-91
2023/05/26 00:55:58;;;;;;;;;;;18.00;99.50;18.00;99913.00;;;;346789;28;91394;-91
2023/05/26 00:56:11;;;;;;;;;;;17.90;99.50;18.00;99924.00;;;;347489;28;82495;-91
2023/05/26 00:56:24;;;;;;;;;;;17.90;99.40;18.00;99934.00;;;;347095;28;91689;-91
2023/05/26 00:56:36;;;;;;;;;;;17.90;99.50;18.10;99918.00;;;;344663;28;82397;-91
2023/05/26 00:56:51;;;;;;;;;;;17.90;99.60;18.10;99924.00;;;;347112;28;91651;-90
2023/05/26 00:57:03;;;;;;;;;;;18.00;99.60;18.20;99925.00;;;;346168;28;82492;-91
2023/05/26 00:57:15;;;;;;;;;;;18.00;99.40;18.20;99917.00;;;;347060;28;91131;-91
2023/05/26 00:57:28;;;;;;;;;;;17.90;99.30;18.20;99923.00;;;;344624;28;83520;-90
2023/05/26 00:57:40;;;;;;;;;;;17.90;99.30;18.20;99919.00;;;;344320;28;91365;-91
2023/05/26 00:57:52;;;;;;;;;;;17.90;99.30;18.20;99923.00;;;;346193;28;83335;-90
2023/05/26 00:58:05;;;;;;;;;;;17.90;99.30;18.20;99927.00;;;;345607;28;92526;-91
2023/05/26 00:58:17;;;;;;;;;;;17.90;99.20;18.10;99928.00;;;;343323;28;83490;-91
2023/05/26 00:58:29;;;;;;;;;;;17.90;99.30;18.10;99939.00;;;;345695;28;89416;-90
2023/05/26 00:58:45;;;;;;;;;;;17.90;99.40;18.00;99929.00;;;;345911;28;83526;-90
2023/05/26 00:58:56;;;;;;;;;;;17.90;99.40;18.00;99923.00;;;;347018;28;91503;-91
2023/05/26 00:59:14;;;;;;;;;;;17.90;99.60;18.00;99927.00;;;;347557;28;82514;-90
2023/05/26 00:59:26;;;;;;;;;;;17.90;99.60;18.00;99922.00;;;;345783;28;88207;-91
2023/05/26 00:59:38;;;;;;;;;;;17.90;99.70;18.10;99926.00;;;;343344;28;83322;-90
2023/05/26 00:59:50;;;;;;;;;;;17.90;99.60;18.00;99916.00;;;;344359;28;91405;-91
2023/05/26 01:00:03;;;;;;;;;;;17.90;99.50;18.10;99925.00;;;;347208;28;83502;-90
2023/05/26 01:00:15;;;;;;;;;;;17.90;99.50;18.20;99934.00;;;;344242;28;91246;-91
2023/05/26 01:00:27;;;;;;;;;;;17.90;99.50;18.20;99924.00;;;;346118;28;83443;-91
2023/05/26 01:00:39;;;;;;;;;;;17.90;99.40;18.10;99926.00;;;;345621;28;90860;-90
2023/05/26 01:00:51;;;;;;;;;;;17.90;99.50;18.20;99927.00;;;;344791;28;82516;-90
2023/05/26 01:01:03;;;;;;;;;;;17.90;99.40;18.10;99918.00;;;;345488;28;91604;-92
2023/05/26 01:01:15;;;;;;;;;;;17.90;99.50;18.10;99917.00;;;;347430;28;83395;-91
2023/05/26 01:01:27;;;;;;;;;;;17.90;99.60;18.20;99922.00;;;;345720;28;91162;-90